createdAt,value
2018-01-05T00:00:58.110Z,92.65
2018-01-05T00:03:32.698Z,92.44
2018-01-05T00:06:07.050Z,92.21
2018-01-05T00:08:41.417Z,91.82
2018-01-05T00:11:16.302Z,91.16
2018-01-05T00:13:51.128Z,91.31
2018-01-05T00:16:25.693Z,91.52
2018-01-05T00:19:00.349Z,91.52
2018-01-05T00:21:34.762Z,91.19
2018-01-05T00:24:09.230Z,91.20
2018-01-05T00:26:43.653Z,91.34
2018-01-05T00:29:18.621Z,91.32
2018-01-05T00:31:53.058Z,91.61
2018-01-05T00:34:27.469Z,91.21
2018-01-05T00:37:01.917Z,90.72
2018-01-05T00:39:36.369Z,90.77
2018-01-05T00:42:10.750Z,91.07
2018-01-05T00:44:45.339Z,91.22
2018-01-05T00:47:19.697Z,90.60
2018-01-05T00:49:54.246Z,90.78
2018-01-05T00:52:28.705Z,90.22
2018-01-05T00:57:43.411Z,89.55
2018-01-05T01:00:17.797Z,89.84
2018-01-05T01:02:52.358Z,89.84
2018-01-05T01:05:26.712Z,89.75
2018-01-05T01:08:01.290Z,89.91
2018-01-05T01:10:35.733Z,90.24
2018-01-05T01:13:10.101Z,91.06
2018-01-05T01:15:44.518Z,90.69
2018-01-05T01:18:19.082Z,90.87
2018-01-05T01:20:53.475Z,91.00
2018-01-05T01:23:27.977Z,90.46
2018-01-05T01:26:02.350Z,90.82
2018-01-05T01:28:37.001Z,90.26
2018-01-05T01:31:12.275Z,89.22
2018-01-05T01:33:46.637Z,88.74
2018-01-05T01:36:20.517Z,89.47
2018-01-05T01:38:54.966Z,90.70
2018-01-05T01:41:29.338Z,92.53
2018-01-05T01:44:03.886Z,93.64
2018-01-05T01:46:38.308Z,94.16
2018-01-05T01:49:12.798Z,94.06
2018-01-05T01:51:47.158Z,94.28
2018-01-05T01:54:22.554Z,94.03
2018-01-05T01:56:57.083Z,94.01
2018-01-05T01:59:31.107Z,94.32
2018-01-05T02:02:05.599Z,94.68
2018-01-05T02:04:40.269Z,94.66
2018-01-05T02:07:14.614Z,94.66
2018-01-05T02:09:49.065Z,94.55
2018-01-05T02:12:23.518Z,94.41
2018-01-05T02:14:58.098Z,94.14
2018-01-05T02:17:32.466Z,92.75
2018-01-05T02:20:15.134Z,91.87
2018-01-05T02:22:49.666Z,90.69
2018-01-05T02:25:24.038Z,90.50
2018-01-05T02:27:58.411Z,90.17
2018-01-05T02:30:32.931Z,90.55
2018-01-05T02:33:07.320Z,90.85
2018-01-05T02:35:41.741Z,91.61
2018-01-05T02:38:16.153Z,89.93
2018-01-05T02:40:50.698Z,89.81
2018-01-05T02:43:25.072Z,90.07
2018-01-05T02:45:59.436Z,90.53
2018-01-05T02:48:35.529Z,90.95
2018-01-05T02:51:09.918Z,91.37
2018-01-05T02:53:44.333Z,91.44
2018-01-05T02:56:19.522Z,92.00
2018-01-05T02:58:53.886Z,92.77
2018-01-05T03:01:28.501Z,93.00
2018-01-05T03:04:02.985Z,93.03
2018-01-05T03:06:37.530Z,90.87
2018-01-05T03:09:12.039Z,90.38
2018-01-05T03:11:46.486Z,90.56
2018-01-05T03:14:21.021Z,91.09
2018-01-05T03:16:55.414Z,91.58
2018-01-05T03:19:29.930Z,92.41
2018-01-05T03:22:04.362Z,92.76
2018-01-05T03:24:38.927Z,93.10
2018-01-05T03:27:13.370Z,93.69
2018-01-05T03:29:47.281Z,93.69
2018-01-05T03:32:21.637Z,93.73
2018-01-05T03:34:56.157Z,93.54
2018-01-05T03:37:30.613Z,93.61
2018-01-05T03:40:14.114Z,93.56
2018-01-05T03:42:48.714Z,93.10
2018-01-05T03:45:23.090Z,92.88
2018-01-05T03:47:57.498Z,93.05
2018-01-05T03:50:31.974Z,93.28
2018-01-05T03:53:06.533Z,93.52
2018-01-05T03:55:40.913Z,92.51
2018-01-05T03:58:15.410Z,92.05
2018-01-05T04:00:49.773Z,92.43
2018-01-05T04:03:24.329Z,94.03
2018-01-05T04:05:58.734Z,93.41
2018-01-05T04:08:33.294Z,92.54
2018-01-05T04:11:07.836Z,90.21
2018-01-05T04:13:42.346Z,100.00
2018-01-05T04:16:16.783Z,100.00
2018-01-05T04:18:51.295Z,100.00
2018-01-05T04:21:25.846Z,100.00
2018-01-05T04:24:00.463Z,100.00
2018-01-05T04:26:34.894Z,100.00
2018-01-05T04:29:09.395Z,100.00
2018-01-05T04:31:43.816Z,100.00
2018-01-05T04:34:18.373Z,100.00
2018-01-05T04:36:52.826Z,100.00
2018-01-05T04:39:27.361Z,100.00
2018-01-05T04:42:01.850Z,100.00
2018-01-05T04:44:36.489Z,100.00
2018-01-05T04:47:11.088Z,100.00
2018-01-05T04:49:45.646Z,100.00
2018-01-05T04:52:20.009Z,100.00
2018-01-05T04:54:54.590Z,100.00
2018-01-05T04:57:29.022Z,100.00
2018-01-05T05:00:13.121Z,100.00
2018-01-05T05:02:47.493Z,100.00
2018-01-05T05:05:21.933Z,100.00
2018-01-05T05:07:56.401Z,100.00
2018-01-05T05:10:31.065Z,100.00
2018-01-05T05:13:05.565Z,100.00
2018-01-05T05:15:39.926Z,100.00
2018-01-05T05:18:14.462Z,100.00
2018-01-05T05:20:48.836Z,100.00
2018-01-05T05:23:23.325Z,100.00
2018-01-05T05:25:57.732Z,100.00
2018-01-05T05:28:32.274Z,100.00
2018-01-05T05:31:06.665Z,100.00
2018-01-05T05:33:40.506Z,100.00
2018-01-05T05:36:16.147Z,100.00
2018-01-05T05:38:50.814Z,100.00
2018-01-05T05:41:25.457Z,100.00
2018-01-05T05:43:59.974Z,100.00
2018-01-05T05:46:34.360Z,100.00
2018-01-05T05:49:08.762Z,100.00
2018-01-05T05:51:43.158Z,100.00
2018-01-05T05:54:17.729Z,100.00
2018-01-05T05:56:52.102Z,100.00
2018-01-05T05:59:26.597Z,100.00
2018-01-05T06:02:00.999Z,100.00
2018-01-05T06:04:35.406Z,100.00
2018-01-05T06:07:09.884Z,100.00
2018-01-05T06:09:44.468Z,100.00
2018-01-05T06:12:18.889Z,100.00
2018-01-05T06:14:53.462Z,100.00
2018-01-05T06:17:27.832Z,100.00
2018-01-05T06:20:02.529Z,100.00
2018-01-05T06:22:39.906Z,100.00
2018-01-05T06:25:14.790Z,100.00
2018-01-05T06:27:49.158Z,100.00
2018-01-05T06:30:23.522Z,100.00
2018-01-05T06:32:58.009Z,100.00
2018-01-05T06:35:32.473Z,100.00
2018-01-05T06:38:07.062Z,100.00
2018-01-05T06:40:42.319Z,100.00
2018-01-05T06:43:16.905Z,100.00
2018-01-05T06:45:51.371Z,100.00
2018-01-05T06:48:25.949Z,100.00
2018-01-05T06:51:00.446Z,100.00
2018-01-05T06:53:34.849Z,100.00
2018-01-05T06:56:09.455Z,100.00
2018-01-05T06:58:43.837Z,100.00
2018-01-05T07:01:18.325Z,100.00
2018-01-05T07:03:52.833Z,100.00
2018-01-05T07:06:27.226Z,100.00
2018-01-05T07:09:01.618Z,100.00
2018-01-05T07:11:36.006Z,100.00
2018-01-05T07:14:10.598Z,100.00
2018-01-05T07:16:45.031Z,100.00
2018-01-05T07:19:19.660Z,100.00
2018-01-05T07:21:54.130Z,100.00
2018-01-05T07:24:28.553Z,100.00
2018-01-05T07:27:02.979Z,100.00
2018-01-05T07:29:37.369Z,100.00
2018-01-05T07:32:11.801Z,100.00
2018-01-05T07:34:46.346Z,100.00
2018-01-05T07:37:21.030Z,100.00
2018-01-05T07:39:55.598Z,100.00
2018-01-05T07:42:30.125Z,100.00
2018-01-05T07:45:04.882Z,100.00
2018-01-05T07:47:39.383Z,100.00
2018-01-05T07:50:13.837Z,100.00
2018-01-05T07:52:48.523Z,100.00
2018-01-05T07:55:23.130Z,100.00
2018-01-05T07:57:58.029Z,100.00
2018-01-05T08:00:32.511Z,100.00
2018-01-05T08:03:07.045Z,100.00
2018-01-05T08:05:41.663Z,100.00
2018-01-05T08:08:16.186Z,100.00
2018-01-05T08:10:51.641Z,100.00
2018-01-05T08:13:26.695Z,100.00
2018-01-05T08:16:01.101Z,100.00
2018-01-05T08:18:35.518Z,100.00
2018-01-05T08:21:09.958Z,100.00
2018-01-05T08:23:44.489Z,100.00
2018-01-05T08:26:18.949Z,100.00
2018-01-05T08:28:53.562Z,100.00
2018-01-05T08:31:28.018Z,100.00
2018-01-05T08:34:02.537Z,100.00
2018-01-05T08:36:36.963Z,100.00
2018-01-05T08:39:11.490Z,100.00
2018-01-05T08:41:46.022Z,100.00
2018-01-05T08:44:20.636Z,100.00
2018-01-05T08:46:55.278Z,100.00
2018-01-05T08:49:30.973Z,100.00
2018-01-05T08:52:05.563Z,100.00
2018-01-05T08:54:39.942Z,100.00
2018-01-05T08:57:14.400Z,100.00
2018-01-05T08:59:49.534Z,100.00
2018-01-05T09:02:24.057Z,100.00
2018-01-05T09:04:58.615Z,100.00
2018-01-05T09:07:33.714Z,100.00
2018-01-05T09:10:10.798Z,100.00
2018-01-05T09:12:45.422Z,100.00
2018-01-05T09:15:19.869Z,100.00
2018-01-05T09:20:35.754Z,100.00
2018-01-05T09:23:10.273Z,100.00
2018-01-05T09:25:44.716Z,100.00
2018-01-05T09:28:19.109Z,100.00
2018-01-05T09:30:53.322Z,100.00
2018-01-05T09:33:27.878Z,100.00
2018-01-05T09:36:02.396Z,100.00
2018-01-05T09:38:36.954Z,100.00
2018-01-05T09:41:11.638Z,100.00
2018-01-05T09:43:51.043Z,100.00
2018-01-05T09:46:25.501Z,100.00
2018-01-05T09:49:00.166Z,100.00
2018-01-05T09:51:34.686Z,100.00
2018-01-05T09:54:09.282Z,100.00
2018-01-05T09:56:44.512Z,100.00
2018-01-05T09:59:19.022Z,100.00
2018-01-05T10:01:53.446Z,100.00
2018-01-05T10:04:27.829Z,100.00
2018-01-05T10:07:02.250Z,100.00
2018-01-05T10:09:36.857Z,100.00
2018-01-05T10:12:11.292Z,100.00
2018-01-05T10:14:45.911Z,100.00
2018-01-05T10:17:20.302Z,100.00
2018-01-05T10:19:54.862Z,100.00
2018-01-05T10:22:29.277Z,100.00
2018-01-05T10:25:04.340Z,100.00
2018-01-05T10:27:38.860Z,100.00
2018-01-05T10:30:13.285Z,100.00
2018-01-05T10:37:07.722Z,52.87
2018-01-05T19:08:27.616Z,100.00
2018-01-05T19:11:02.195Z,100.00
2018-01-05T19:13:36.751Z,100.00
2018-01-05T19:16:12.161Z,100.00
2018-01-05T19:18:46.784Z,100.00
2018-01-05T19:21:21.392Z,100.00
2018-01-05T19:23:55.931Z,100.00
2018-01-05T19:26:30.305Z,100.00
2018-01-05T19:29:04.795Z,100.00
2018-01-05T19:31:39.245Z,100.00
2018-01-05T19:34:13.802Z,100.00
2018-01-05T19:36:48.554Z,100.00
2018-01-05T19:39:23.118Z,100.00
2018-01-05T19:41:58.314Z,100.00
2018-01-05T19:44:32.715Z,100.00
2018-01-05T19:47:07.601Z,100.00
2018-01-05T19:49:42.206Z,100.00
2018-01-05T19:52:16.588Z,100.00
2018-01-05T19:54:52.857Z,100.00
2018-01-05T19:57:27.243Z,100.00
2018-01-05T20:00:03.673Z,100.00
2018-01-05T20:02:38.768Z,100.00
2018-01-05T20:10:22.679Z,100.00
2018-01-05T20:12:57.425Z,100.00
2018-01-05T20:15:32.154Z,100.00
2018-01-05T20:18:07.129Z,100.00
2018-01-05T20:20:41.943Z,100.00
2018-01-05T20:23:16.694Z,100.00
2018-01-05T20:25:51.495Z,100.00
2018-01-05T20:28:26.514Z,100.00
2018-01-05T20:31:01.704Z,100.00
2018-01-05T20:33:36.646Z,100.00
2018-01-05T20:36:11.500Z,100.00
2018-01-05T20:38:46.163Z,100.00
2018-01-05T20:41:20.884Z,100.00
2018-01-05T20:43:55.711Z,100.00
2018-01-05T20:46:30.444Z,100.00
2018-01-05T20:49:05.213Z,100.00
2018-01-05T20:51:40.118Z,100.00
2018-01-05T20:54:14.873Z,100.00
2018-01-05T20:56:49.583Z,100.00
2018-01-05T20:59:24.502Z,100.00
2018-01-05T21:01:59.373Z,100.00
2018-01-05T21:22:29.918Z,100.00
2018-01-05T21:27:50.946Z,100.00
2018-01-05T21:30:27.914Z,100.00
2018-01-05T21:33:02.419Z,100.00
2018-01-05T21:35:36.874Z,100.00
2018-01-05T21:38:11.440Z,100.00
2018-01-05T21:40:45.854Z,100.00
2018-01-05T21:43:20.378Z,100.00
2018-01-05T21:45:54.769Z,100.00
2018-01-05T21:48:29.207Z,100.00
2018-01-05T21:51:03.822Z,100.00
2018-01-05T21:53:39.323Z,100.00
2018-01-05T21:56:13.685Z,100.00
2018-01-05T21:58:48.149Z,100.00
2018-01-05T22:01:22.824Z,100.00
2018-01-05T22:03:57.327Z,100.00
2018-01-05T22:06:31.757Z,100.00
2018-01-05T22:09:05.938Z,100.00
2018-01-05T22:11:40.458Z,100.00
2018-01-05T22:14:14.966Z,100.00
2018-01-05T22:16:49.458Z,100.00
2018-01-05T22:19:24.049Z,100.00
2018-01-05T22:21:58.542Z,100.00
2018-01-05T22:24:32.703Z,100.00
2018-01-05T22:27:07.108Z,100.00
2018-01-05T22:29:41.921Z,100.00
2018-01-05T22:32:16.349Z,100.00
2018-01-05T22:34:50.961Z,100.00
2018-01-05T22:37:25.374Z,100.00
2018-01-05T22:39:59.578Z,100.00
2018-01-05T22:42:34.083Z,100.00
2018-01-05T22:45:09.050Z,100.00
2018-01-05T22:47:44.923Z,100.00
2018-01-05T22:50:19.548Z,100.00
2018-01-05T22:52:54.234Z,100.00
2018-01-05T22:55:28.793Z,100.00
2018-01-05T22:58:04.282Z,100.00
2018-01-05T23:00:38.766Z,100.00
